sensor_id;sensor_type;location;lat;lon;timestamp;P1;durP1;ratioP1;P2;durP2;ratioP2
7843;SDS011;3967;48.702;9.326;2022-11-20T00:01:23;3.20;;;2.90;;
7843;SDS011;3967;48.702;9.326;2022-11-20T00:03:52;3.80;;;3.33;;
7843;SDS011;3967;48.702;9.326;2022-11-20T00:06:21;5.07;;;4.30;;
7843;SDS011;3967;48.702;9.326;2022-11-20T00:08:49;4.53;;;3.47;;
7843;SDS011;3967;48.702;9.326;2022-11-20T00:11:16;4.57;;;3.30;;
7843;SDS011;3967;48.702;9.326;2022-11-20T00:13:46;2.93;;;2.73;;
7843;SDS011;3967;48.702;9.326;2022-11-20T00:16:15;3.33;;;2.73;;
7843;SDS011;3967;48.702;9.326;2022-11-20T00:18:43;2.97;;;2.70;;
7843;SDS011;3967;48.702;9.326;2022-11-20T00:21:12;4.63;;;2.80;;
7843;SDS011;3967;48.702;9.326;2022-11-20T00:23:41;3.23;;;2.93;;
7843;SDS011;3967;48.702;9.326;2022-11-20T00:26:09;2.90;;;2.70;;
7843;SDS011;3967;48.702;9.326;2022-11-20T00:28:38;3.43;;;2.93;;
7843;SDS011;3967;48.702;9.326;2022-11-20T00:31:06;3.80;;;3.43;;
7843;SDS011;3967;48.702;9.326;2022-11-20T00:33:35;4.20;;;3.30;;
7843;SDS011;3967;48.702;9.326;2022-11-20T00:38:30;5.43;;;4.33;;
7843;SDS011;3967;48.702;9.326;2022-11-20T00:40:58;4.63;;;4.23;;
7843;SDS011;3967;48.702;9.326;2022-11-20T00:43:25;3.77;;;3.30;;
7843;SDS011;3967;48.702;9.326;2022-11-20T00:46:03;4.17;;;3.17;;
7843;SDS011;3967;48.702;9.326;2022-11-20T00:48:39;3.20;;;2.90;;
7843;SDS011;3967;48.702;9.326;2022-11-20T00:51:06;3.27;;;2.97;;
7843;SDS011;3967;48.702;9.326;2022-11-20T00:53:33;3.27;;;2.90;;
7843;SDS011;3967;48.702;9.326;2022-11-20T00:56:05;3.07;;;2.63;;
7843;SDS011;3967;48.702;9.326;2022-11-20T00:58:34;3.57;;;2.60;;
7843;SDS011;3967;48.702;9.326;2022-11-20T01:01:06;2.97;;;2.33;;
7843;SDS011;3967;48.702;9.326;2022-11-20T01:03:56;2.90;;;2.40;;
7843;SDS011;3967;48.702;9.326;2022-11-20T01:06:28;3.83;;;2.40;;
7843;SDS011;3967;48.702;9.326;2022-11-20T01:08:58;2.73;;;2.10;;
7843;SDS011;3967;48.702;9.326;2022-11-20T01:11:28;2.70;;;2.50;;
7843;SDS011;3967;48.702;9.326;2022-11-20T01:13:57;2.63;;;2.10;;
7843;SDS011;3967;48.702;9.326;2022-11-20T01:16:27;2.30;;;2.10;;
7843;SDS011;3967;48.702;9.326;2022-11-20T01:18:57;2.40;;;2.20;;
7843;SDS011;3967;48.702;9.326;2022-11-20T01:23:54;2.90;;;2.10;;
7843;SDS011;3967;48.702;9.326;2022-11-20T01:26:22;2.33;;;2.10;;
7843;SDS011;3967;48.702;9.326;2022-11-20T01:28:51;1.80;;;1.70;;
7843;SDS011;3967;48.702;9.326;2022-11-20T01:31:23;2.00;;;1.80;;
7843;SDS011;3967;48.702;9.326;2022-11-20T01:33:59;2.10;;;1.90;;
7843;SDS011;3967;48.702;9.326;2022-11-20T01:36:28;5.47;;;2.03;;
7843;SDS011;3967;48.702;9.326;2022-11-20T01:39:00;2.03;;;1.83;;
7843;SDS011;3967;48.702;9.326;2022-11-20T01:41:32;3.43;;;2.27;;
7843;SDS011;3967;48.702;9.326;2022-11-20T01:44:19;2.03;;;1.90;;
7843;SDS011;3967;48.702;9.326;2022-11-20T01:47:04;2.20;;;2.00;;
7843;SDS011;3967;48.702;9.326;2022-11-20T01:49:40;3.03;;;2.10;;
7843;SDS011;3967;48.702;9.326;2022-11-20T01:52:16;2.73;;;1.90;;
7843;SDS011;3967;48.702;9.326;2022-11-20T01:54:50;2.50;;;2.07;;
7843;SDS011;3967;48.702;9.326;2022-11-20T01:57:22;1.90;;;1.80;;
7843;SDS011;3967;48.702;9.326;2022-11-20T01:59:53;2.20;;;2.00;;
7843;SDS011;3967;48.702;9.326;2022-11-20T02:02:25;1.80;;;1.70;;
7843;SDS011;3967;48.702;9.326;2022-11-20T02:04:53;2.20;;;2.00;;
7843;SDS011;3967;48.702;9.326;2022-11-20T02:07:22;3.70;;;1.97;;
7843;SDS011;3967;48.702;9.326;2022-11-20T02:09:50;2.07;;;1.77;;
7843;SDS011;3967;48.702;9.326;2022-11-20T02:12:23;2.70;;;1.97;;
7843;SDS011;3967;48.702;9.326;2022-11-20T02:15:09;2.10;;;1.90;;
7843;SDS011;3967;48.702;9.326;2022-11-20T02:17:35;2.57;;;2.37;;
7843;SDS011;3967;48.702;9.326;2022-11-20T02:20:02;3.27;;;1.97;;
7843;SDS011;3967;48.702;9.326;2022-11-20T02:22:38;2.30;;;2.10;;
7843;SDS011;3967;48.702;9.326;2022-11-20T02:25:14;2.10;;;1.90;;
7843;SDS011;3967;48.702;9.326;2022-11-20T02:27:41;2.30;;;1.90;;
7843;SDS011;3967;48.702;9.326;2022-11-20T02:30:08;2.50;;;1.80;;
7843;SDS011;3967;48.702;9.326;2022-11-20T02:32:37;2.60;;;2.40;;
7843;SDS011;3967;48.702;9.326;2022-11-20T02:37:47;2.13;;;1.90;;
7843;SDS011;3967;48.702;9.326;2022-11-20T02:40:16;3.30;;;2.20;;
7843;SDS011;3967;48.702;9.326;2022-11-20T02:42:42;2.97;;;2.20;;
7843;SDS011;3967;48.702;9.326;2022-11-20T02:45:09;2.47;;;2.20;;
7843;SDS011;3967;48.702;9.326;2022-11-20T02:47:36;2.40;;;2.30;;
7843;SDS011;3967;48.702;9.326;2022-11-20T02:50:04;3.93;;;2.87;;
7843;SDS011;3967;48.702;9.326;2022-11-20T02:52:31;2.47;;;2.13;;
7843;SDS011;3967;48.702;9.326;2022-11-20T02:54:58;3.03;;;2.47;;
7843;SDS011;3967;48.702;9.326;2022-11-20T02:57:24;2.70;;;2.47;;
7843;SDS011;3967;48.702;9.326;2022-11-20T02:59:51;3.60;;;2.87;;
7843;SDS011;3967;48.702;9.326;2022-11-20T03:02:17;2.60;;;2.40;;
7843;SDS011;3967;48.702;9.326;2022-11-20T03:04:44;2.90;;;2.60;;
7843;SDS011;3967;48.702;9.326;2022-11-20T03:07:11;2.80;;;2.60;;
7843;SDS011;3967;48.702;9.326;2022-11-20T03:09:37;2.67;;;2.47;;
7843;SDS011;3967;48.702;9.326;2022-11-20T03:12:04;3.37;;;2.90;;
7843;SDS011;3967;48.702;9.326;2022-11-20T03:14:31;3.00;;;2.47;;
7843;SDS011;3967;48.702;9.326;2022-11-20T03:16:58;2.43;;;2.33;;
7843;SDS011;3967;48.702;9.326;2022-11-20T03:19:25;2.97;;;2.47;;
7843;SDS011;3967;48.702;9.326;2022-11-20T03:21:51;3.03;;;2.73;;
7843;SDS011;3967;48.702;9.326;2022-11-20T03:24:18;5.77;;;2.67;;
7843;SDS011;3967;48.702;9.326;2022-11-20T03:26:45;4.03;;;2.67;;
7843;SDS011;3967;48.702;9.326;2022-11-20T03:29:11;2.40;;;2.20;;
7843;SDS011;3967;48.702;9.326;2022-11-20T03:31:39;2.63;;;2.43;;
7843;SDS011;3967;48.702;9.326;2022-11-20T03:34:07;4.43;;;2.53;;
7843;SDS011;3967;48.702;9.326;2022-11-20T03:36:37;3.90;;;2.80;;
7843;SDS011;3967;48.702;9.326;2022-11-20T03:39:05;2.83;;;2.40;;
7843;SDS011;3967;48.702;9.326;2022-11-20T03:41:35;2.40;;;2.17;;
7843;SDS011;3967;48.702;9.326;2022-11-20T03:44:04;2.80;;;2.60;;
7843;SDS011;3967;48.702;9.326;2022-11-20T03:46:33;3.30;;;2.27;;
7843;SDS011;3967;48.702;9.326;2022-11-20T03:49:00;4.80;;;2.67;;
7843;SDS011;3967;48.702;9.326;2022-11-20T03:51:31;2.73;;;2.53;;
7843;SDS011;3967;48.702;9.326;2022-11-20T03:54:00;3.40;;;2.90;;
7843;SDS011;3967;48.702;9.326;2022-11-20T03:56:29;2.43;;;2.23;;
7843;SDS011;3967;48.702;9.326;2022-11-20T03:58:57;3.60;;;2.30;;
7843;SDS011;3967;48.702;9.326;2022-11-20T04:01:25;2.77;;;2.07;;
7843;SDS011;3967;48.702;9.326;2022-11-20T04:03:56;2.27;;;1.90;;
7843;SDS011;3967;48.702;9.326;2022-11-20T04:06:24;2.27;;;2.03;;
7843;SDS011;3967;48.702;9.326;2022-11-20T04:08:56;3.83;;;2.17;;
7843;SDS011;3967;48.702;9.326;2022-11-20T04:11:24;2.30;;;2.10;;
7843;SDS011;3967;48.702;9.326;2022-11-20T04:13:56;2.17;;;1.87;;
7843;SDS011;3967;48.702;9.326;2022-11-20T04:16:25;3.70;;;1.80;;
7843;SDS011;3967;48.702;9.326;2022-11-20T04:18:53;3.03;;;2.03;;
7843;SDS011;3967;48.702;9.326;2022-11-20T04:21:20;3.10;;;1.67;;
7843;SDS011;3967;48.702;9.326;2022-11-20T04:23:48;2.30;;;2.10;;
7843;SDS011;3967;48.702;9.326;2022-11-20T04:26:16;2.17;;;1.77;;
7843;SDS011;3967;48.702;9.326;2022-11-20T04:28:43;3.53;;;2.03;;
7843;SDS011;3967;48.702;9.326;2022-11-20T04:31:10;1.67;;;1.57;;
7843;SDS011;3967;48.702;9.326;2022-11-20T04:33:38;2.60;;;1.70;;
7843;SDS011;3967;48.702;9.326;2022-11-20T04:36:07;2.73;;;2.10;;
7843;SDS011;3967;48.702;9.326;2022-11-20T04:38:52;3.50;;;2.00;;
7843;SDS011;3967;48.702;9.326;2022-11-20T04:41:23;2.00;;;1.80;;
7843;SDS011;3967;48.702;9.326;2022-11-20T04:43:52;2.30;;;2.10;;
7843;SDS011;3967;48.702;9.326;2022-11-20T04:46:25;3.00;;;2.00;;
7843;SDS011;3967;48.702;9.326;2022-11-20T04:48:53;2.17;;;1.80;;
7843;SDS011;3967;48.702;9.326;2022-11-20T04:51:20;2.90;;;1.90;;
7843;SDS011;3967;48.702;9.326;2022-11-20T04:53:47;2.57;;;2.07;;
7843;SDS011;3967;48.702;9.326;2022-11-20T04:56:14;1.97;;;1.70;;
7843;SDS011;3967;48.702;9.326;2022-11-20T04:58:41;2.23;;;1.80;;
7843;SDS011;3967;48.702;9.326;2022-11-20T05:01:12;2.37;;;2.03;;
7843;SDS011;3967;48.702;9.326;2022-11-20T05:03:40;2.10;;;1.70;;
7843;SDS011;3967;48.702;9.326;2022-11-20T05:06:08;4.63;;;2.23;;
7843;SDS011;3967;48.702;9.326;2022-11-20T05:08:36;2.20;;;2.00;;
7843;SDS011;3967;48.702;9.326;2022-11-20T05:11:04;4.33;;;2.00;;
7843;SDS011;3967;48.702;9.326;2022-11-20T05:13:36;4.07;;;2.00;;
7843;SDS011;3967;48.702;9.326;2022-11-20T05:16:04;1.60;;;1.50;;
7843;SDS011;3967;48.702;9.326;2022-11-20T05:18:36;2.27;;;1.50;;
7843;SDS011;3967;48.702;9.326;2022-11-20T05:21:04;2.53;;;1.97;;
7843;SDS011;3967;48.702;9.326;2022-11-20T05:23:31;2.40;;;2.20;;
7843;SDS011;3967;48.702;9.326;2022-11-20T05:25:59;1.80;;;1.70;;
7843;SDS011;3967;48.702;9.326;2022-11-20T05:28:27;2.87;;;1.67;;
7843;SDS011;3967;48.702;9.326;2022-11-20T05:30:55;2.50;;;1.97;;
7843;SDS011;3967;48.702;9.326;2022-11-20T05:33:22;2.40;;;1.90;;
7843;SDS011;3967;48.702;9.326;2022-11-20T05:35:49;2.53;;;1.70;;
7843;SDS011;3967;48.702;9.326;2022-11-20T05:38:15;2.03;;;1.53;;
7843;SDS011;3967;48.702;9.326;2022-11-20T05:40:42;1.90;;;1.80;;
7843;SDS011;3967;48.702;9.326;2022-11-20T05:43:09;2.93;;;1.90;;
7843;SDS011;3967;48.702;9.326;2022-11-20T05:45:35;3.23;;;1.73;;
7843;SDS011;3967;48.702;9.326;2022-11-20T05:48:02;1.73;;;1.30;;
7843;SDS011;3967;48.702;9.326;2022-11-20T05:50:29;2.90;;;1.67;;
7843;SDS011;3967;48.702;9.326;2022-11-20T05:52:59;1.73;;;1.50;;
7843;SDS011;3967;48.702;9.326;2022-11-20T05:55:26;1.80;;;1.57;;
7843;SDS011;3967;48.702;9.326;2022-11-20T05:57:53;1.53;;;1.43;;
7843;SDS011;3967;48.702;9.326;2022-11-20T06:00:21;1.70;;;1.60;;
7843;SDS011;3967;48.702;9.326;2022-11-20T06:02:48;1.47;;;1.37;;
7843;SDS011;3967;48.702;9.326;2022-11-20T06:05:15;1.70;;;1.60;;
7843;SDS011;3967;48.702;9.326;2022-11-20T06:07:42;1.93;;;1.60;;
7843;SDS011;3967;48.702;9.326;2022-11-20T06:10:09;1.60;;;1.50;;
7843;SDS011;3967;48.702;9.326;2022-11-20T06:12:36;2.23;;;1.60;;
7843;SDS011;3967;48.702;9.326;2022-11-20T06:15:03;2.57;;;1.90;;
7843;SDS011;3967;48.702;9.326;2022-11-20T06:17:31;1.93;;;1.77;;
7843;SDS011;3967;48.702;9.326;2022-11-20T06:19:57;1.70;;;1.60;;
7843;SDS011;3967;48.702;9.326;2022-11-20T06:22:24;1.70;;;1.60;;
7843;SDS011;3967;48.702;9.326;2022-11-20T06:24:51;1.87;;;1.77;;
7843;SDS011;3967;48.702;9.326;2022-11-20T06:27:17;1.97;;;1.53;;
7843;SDS011;3967;48.702;9.326;2022-11-20T06:29:44;2.20;;;1.80;;
7843;SDS011;3967;48.702;9.326;2022-11-20T06:32:11;2.13;;;1.60;;
7843;SDS011;3967;48.702;9.326;2022-11-20T06:34:38;1.70;;;1.60;;
7843;SDS011;3967;48.702;9.326;2022-11-20T06:37:05;2.30;;;2.10;;
7843;SDS011;3967;48.702;9.326;2022-11-20T06:39:31;4.07;;;2.07;;
7843;SDS011;3967;48.702;9.326;2022-11-20T06:41:58;1.73;;;1.57;;
7843;SDS011;3967;48.702;9.326;2022-11-20T06:44:25;1.87;;;1.67;;
7843;SDS011;3967;48.702;9.326;2022-11-20T06:46:51;2.00;;;1.80;;
7843;SDS011;3967;48.702;9.326;2022-11-20T06:49:18;1.30;;;1.20;;
7843;SDS011;3967;48.702;9.326;2022-11-20T06:51:46;3.87;;;1.83;;
7843;SDS011;3967;48.702;9.326;2022-11-20T06:54:13;2.37;;;1.57;;
7843;SDS011;3967;48.702;9.326;2022-11-20T06:56:39;1.50;;;1.40;;
7843;SDS011;3967;48.702;9.326;2022-11-20T06:59:06;1.77;;;1.60;;
7843;SDS011;3967;48.702;9.326;2022-11-20T07:01:33;2.70;;;1.90;;
7843;SDS011;3967;48.702;9.326;2022-11-20T07:04:01;3.87;;;2.87;;
7843;SDS011;3967;48.702;9.326;2022-11-20T07:06:29;3.07;;;2.83;;
7843;SDS011;3967;48.702;9.326;2022-11-20T07:08:56;3.20;;;2.90;;
7843;SDS011;3967;48.702;9.326;2022-11-20T07:11:23;4.17;;;2.50;;
7843;SDS011;3967;48.702;9.326;2022-11-20T07:13:50;2.33;;;1.90;;
7843;SDS011;3967;48.702;9.326;2022-11-20T07:16:16;2.30;;;1.57;;
7843;SDS011;3967;48.702;9.326;2022-11-20T07:18:43;1.80;;;1.70;;
7843;SDS011;3967;48.702;9.326;2022-11-20T07:21:16;2.27;;;1.90;;
7843;SDS011;3967;48.702;9.326;2022-11-20T07:23:42;2.33;;;1.73;;
7843;SDS011;3967;48.702;9.326;2022-11-20T07:26:10;2.03;;;1.67;;
7843;SDS011;3967;48.702;9.326;2022-11-20T07:28:37;2.17;;;1.80;;
7843;SDS011;3967;48.702;9.326;2022-11-20T07:31:04;1.97;;;1.70;;
7843;SDS011;3967;48.702;9.326;2022-11-20T07:33:33;6.03;;;4.07;;
7843;SDS011;3967;48.702;9.326;2022-11-20T07:36:00;2.50;;;2.00;;
7843;SDS011;3967;48.702;9.326;2022-11-20T07:38:27;1.80;;;1.70;;
7843;SDS011;3967;48.702;9.326;2022-11-20T07:40:55;2.60;;;1.77;;
7843;SDS011;3967;48.702;9.326;2022-11-20T07:43:27;2.20;;;2.00;;
7843;SDS011;3967;48.702;9.326;2022-11-20T07:45:59;3.53;;;2.10;;
7843;SDS011;3967;48.702;9.326;2022-11-20T07:48:26;3.17;;;2.53;;
7843;SDS011;3967;48.702;9.326;2022-11-20T07:50:54;2.37;;;1.90;;
7843;SDS011;3967;48.702;9.326;2022-11-20T07:53:21;3.83;;;3.53;;
7843;SDS011;3967;48.702;9.326;2022-11-20T07:55:48;2.60;;;2.40;;
7843;SDS011;3967;48.702;9.326;2022-11-20T07:58:18;5.57;;;4.83;;
7843;SDS011;3967;48.702;9.326;2022-11-20T08:00:46;3.47;;;2.40;;
7843;SDS011;3967;48.702;9.326;2022-11-20T08:03:13;4.30;;;1.97;;
7843;SDS011;3967;48.702;9.326;2022-11-20T08:05:39;2.47;;;1.77;;
7843;SDS011;3967;48.702;9.326;2022-11-20T08:08:06;1.70;;;1.60;;
7843;SDS011;3967;48.702;9.326;2022-11-20T08:10:33;2.40;;;2.20;;
7843;SDS011;3967;48.702;9.326;2022-11-20T08:13:00;2.57;;;1.50;;
7843;SDS011;3967;48.702;9.326;2022-11-20T08:15:49;2.83;;;1.67;;
7843;SDS011;3967;48.702;9.326;2022-11-20T08:18:19;1.70;;;1.60;;
7843;SDS011;3967;48.702;9.326;2022-11-20T08:20:57;2.50;;;2.27;;
7843;SDS011;3967;48.702;9.326;2022-11-20T08:23:27;2.90;;;2.13;;
7843;SDS011;3967;48.702;9.326;2022-11-20T08:25:53;1.60;;;1.50;;
7843;SDS011;3967;48.702;9.326;2022-11-20T08:28:20;1.70;;;1.60;;
7843;SDS011;3967;48.702;9.326;2022-11-20T08:30:48;1.53;;;1.40;;
7843;SDS011;3967;48.702;9.326;2022-11-20T08:33:16;1.30;;;1.07;;
7843;SDS011;3967;48.702;9.326;2022-11-20T08:35:44;2.13;;;1.60;;
7843;SDS011;3967;48.702;9.326;2022-11-20T08:38:10;1.40;;;1.30;;
7843;SDS011;3967;48.702;9.326;2022-11-20T08:40:40;2.57;;;1.63;;
7843;SDS011;3967;48.702;9.326;2022-11-20T08:43:30;2.00;;;1.50;;
7843;SDS011;3967;48.702;9.326;2022-11-20T08:45:57;1.87;;;1.50;;
7843;SDS011;3967;48.702;9.326;2022-11-20T08:48:24;1.47;;;1.37;;
7843;SDS011;3967;48.702;9.326;2022-11-20T08:50:50;1.50;;;1.40;;
7843;SDS011;3967;48.702;9.326;2022-11-20T08:53:17;2.80;;;1.50;;
7843;SDS011;3967;48.702;9.326;2022-11-20T08:55:44;2.50;;;1.43;;
7843;SDS011;3967;48.702;9.326;2022-11-20T08:58:10;1.77;;;1.67;;
7843;SDS011;3967;48.702;9.326;2022-11-20T09:00:37;1.50;;;1.30;;
7843;SDS011;3967;48.702;9.326;2022-11-20T09:03:04;1.40;;;1.30;;
7843;SDS011;3967;48.702;9.326;2022-11-20T09:05:31;2.80;;;1.30;;
7843;SDS011;3967;48.702;9.326;2022-11-20T09:07:58;2.27;;;1.53;;
7843;SDS011;3967;48.702;9.326;2022-11-20T09:10:28;2.07;;;1.57;;
7843;SDS011;3967;48.702;9.326;2022-11-20T09:12:55;1.70;;;1.27;;
7843;SDS011;3967;48.702;9.326;2022-11-20T09:15:22;1.33;;;1.23;;
7843;SDS011;3967;48.702;9.326;2022-11-20T09:17:53;3.10;;;2.07;;
7843;SDS011;3967;48.702;9.326;2022-11-20T09:20:21;1.83;;;1.73;;
7843;SDS011;3967;48.702;9.326;2022-11-20T09:22:48;2.13;;;1.57;;
7843;SDS011;3967;48.702;9.326;2022-11-20T09:25:15;2.20;;;1.60;;
7843;SDS011;3967;48.702;9.326;2022-11-20T09:27:42;1.83;;;1.73;;
7843;SDS011;3967;48.702;9.326;2022-11-20T09:30:12;1.67;;;1.57;;
7843;SDS011;3967;48.702;9.326;2022-11-20T09:32:40;1.47;;;1.30;;
7843;SDS011;3967;48.702;9.326;2022-11-20T09:35:07;1.43;;;1.03;;
7843;SDS011;3967;48.702;9.326;2022-11-20T09:37:35;1.60;;;1.40;;
7843;SDS011;3967;48.702;9.326;2022-11-20T09:40:01;1.63;;;1.13;;
7843;SDS011;3967;48.702;9.326;2022-11-20T09:42:40;1.47;;;1.00;;
7843;SDS011;3967;48.702;9.326;2022-11-20T09:53:22;1.23;;;1.00;;
7843;SDS011;3967;48.702;9.326;2022-11-20T09:56:12;1.20;;;1.10;;
7843;SDS011;3967;48.702;9.326;2022-11-20T09:58:50;1.63;;;1.00;;
7843;SDS011;3967;48.702;9.326;2022-11-20T10:01:21;1.00;;;0.90;;
7843;SDS011;3967;48.702;9.326;2022-11-20T10:06:42;1.10;;;0.90;;
7843;SDS011;3967;48.702;9.326;2022-11-20T10:09:38;1.47;;;0.90;;
7843;SDS011;3967;48.702;9.326;2022-11-20T10:12:19;1.10;;;1.00;;
7843;SDS011;3967;48.702;9.326;2022-11-20T10:20:39;1.33;;;0.83;;
7843;SDS011;3967;48.702;9.326;2022-11-20T10:23:35;0.70;;;0.70;;
7843;SDS011;3967;48.702;9.326;2022-11-20T10:26:39;0.73;;;0.73;;
7843;SDS011;3967;48.702;9.326;2022-11-20T10:29:16;0.93;;;0.93;;
7843;SDS011;3967;48.702;9.326;2022-11-20T10:31:50;1.10;;;1.00;;
7843;SDS011;3967;48.702;9.326;2022-11-20T10:34:25;0.93;;;0.83;;
7843;SDS011;3967;48.702;9.326;2022-11-20T10:36:58;0.80;;;0.80;;
7843;SDS011;3967;48.702;9.326;2022-11-20T10:42:45;0.83;;;0.83;;
7843;SDS011;3967;48.702;9.326;2022-11-20T10:45:20;2.27;;;1.03;;
7843;SDS011;3967;48.702;9.326;2022-11-20T10:47:52;0.93;;;0.93;;
7843;SDS011;3967;48.702;9.326;2022-11-20T10:50:22;0.70;;;0.70;;
7843;SDS011;3967;48.702;9.326;2022-11-20T10:58:38;0.60;;;0.60;;
7843;SDS011;3967;48.702;9.326;2022-11-20T11:01:17;0.70;;;0.70;;
7843;SDS011;3967;48.702;9.326;2022-11-20T11:03:45;0.70;;;0.70;;
7843;SDS011;3967;48.702;9.326;2022-11-20T11:06:24;1.13;;;0.50;;
7843;SDS011;3967;48.702;9.326;2022-11-20T11:08:58;1.00;;;1.00;;
7843;SDS011;3967;48.702;9.326;2022-11-20T11:11:30;1.60;;;1.00;;
7843;SDS011;3967;48.702;9.326;2022-11-20T11:14:12;0.97;;;0.90;;
7843;SDS011;3967;48.702;9.326;2022-11-20T11:16:54;1.97;;;1.77;;
7843;SDS011;3967;48.702;9.326;2022-11-20T11:19:22;1.40;;;1.30;;
7843;SDS011;3967;48.702;9.326;2022-11-20T11:21:51;1.37;;;0.90;;
7843;SDS011;3967;48.702;9.326;2022-11-20T11:24:23;1.10;;;1.00;;
7843;SDS011;3967;48.702;9.326;2022-11-20T11:27:12;1.40;;;1.17;;
7843;SDS011;3967;48.702;9.326;2022-11-20T11:29:42;1.40;;;1.30;;
7843;SDS011;3967;48.702;9.326;2022-11-20T11:32:13;1.23;;;1.00;;
7843;SDS011;3967;48.702;9.326;2022-11-20T11:34:43;1.30;;;1.20;;
7843;SDS011;3967;48.702;9.326;2022-11-20T11:37:13;1.20;;;1.10;;
7843;SDS011;3967;48.702;9.326;2022-11-20T11:39:44;1.50;;;1.30;;
7843;SDS011;3967;48.702;9.326;2022-11-20T11:42:29;1.30;;;1.20;;
7843;SDS011;3967;48.702;9.326;2022-11-20T11:44:57;3.00;;;1.20;;
7843;SDS011;3967;48.702;9.326;2022-11-20T11:58:51;1.60;;;1.40;;
7843;SDS011;3967;48.702;9.326;2022-11-20T12:07:01;3.17;;;1.37;;
7843;SDS011;3967;48.702;9.326;2022-11-20T12:09:56;2.03;;;1.20;;
7843;SDS011;3967;48.702;9.326;2022-11-20T12:12:26;1.20;;;1.00;;
7843;SDS011;3967;48.702;9.326;2022-11-20T12:14:57;2.50;;;1.27;;
7843;SDS011;3967;48.702;9.326;2022-11-20T12:17:24;2.37;;;1.00;;
7843;SDS011;3967;48.702;9.326;2022-11-20T12:19:51;1.67;;;1.00;;
7843;SDS011;3967;48.702;9.326;2022-11-20T12:31:08;2.30;;;1.53;;
7843;SDS011;3967;48.702;9.326;2022-11-20T12:33:57;1.30;;;1.07;;
7843;SDS011;3967;48.702;9.326;2022-11-20T12:36:53;1.50;;;0.90;;
7843;SDS011;3967;48.702;9.326;2022-11-20T12:39:35;3.57;;;1.40;;
7843;SDS011;3967;48.702;9.326;2022-11-20T12:45:14;2.27;;;0.70;;
7843;SDS011;3967;48.702;9.326;2022-11-20T12:59:02;1.37;;;0.83;;
7843;SDS011;3967;48.702;9.326;2022-11-20T13:01:50;1.00;;;0.80;;
7843;SDS011;3967;48.702;9.326;2022-11-20T13:07:03;1.10;;;0.50;;
7843;SDS011;3967;48.702;9.326;2022-11-20T13:09:37;1.10;;;0.70;;
7843;SDS011;3967;48.702;9.326;2022-11-20T13:14:42;1.33;;;0.60;;
7843;SDS011;3967;48.702;9.326;2022-11-20T13:17:48;3.50;;;0.50;;
7843;SDS011;3967;48.702;9.326;2022-11-20T13:20:20;1.77;;;0.83;;
7843;SDS011;3967;48.702;9.326;2022-11-20T13:22:48;1.03;;;0.70;;
7843;SDS011;3967;48.702;9.326;2022-11-20T13:25:31;2.23;;;1.00;;
7843;SDS011;3967;48.702;9.326;2022-11-20T13:28:03;1.37;;;0.90;;
7843;SDS011;3967;48.702;9.326;2022-11-20T13:30:37;0.63;;;0.60;;
7843;SDS011;3967;48.702;9.326;2022-11-20T13:35:58;1.27;;;0.40;;
7843;SDS011;3967;48.702;9.326;2022-11-20T13:38:39;1.93;;;1.13;;
7843;SDS011;3967;48.702;9.326;2022-11-20T13:41:22;3.20;;;0.70;;
7843;SDS011;3967;48.702;9.326;2022-11-20T13:44:14;1.27;;;0.50;;
7843;SDS011;3967;48.702;9.326;2022-11-20T13:47:23;2.10;;;0.77;;
7843;SDS011;3967;48.702;9.326;2022-11-20T13:49:51;1.80;;;0.50;;
7843;SDS011;3967;48.702;9.326;2022-11-20T13:55:18;2.73;;;0.83;;
7843;SDS011;3967;48.702;9.326;2022-11-20T13:58:12;0.77;;;0.77;;
7843;SDS011;3967;48.702;9.326;2022-11-20T14:01:01;1.10;;;1.00;;
7843;SDS011;3967;48.702;9.326;2022-11-20T14:03:35;2.33;;;1.00;;
7843;SDS011;3967;48.702;9.326;2022-11-20T14:06:26;1.83;;;0.70;;
7843;SDS011;3967;48.702;9.326;2022-11-20T14:08:58;2.43;;;0.83;;
7843;SDS011;3967;48.702;9.326;2022-11-20T14:11:27;1.83;;;0.70;;
7843;SDS011;3967;48.702;9.326;2022-11-20T14:16:24;1.43;;;0.70;;
7843;SDS011;3967;48.702;9.326;2022-11-20T14:18:55;2.50;;;1.77;;
7843;SDS011;3967;48.702;9.326;2022-11-20T14:21:26;1.00;;;0.90;;
7843;SDS011;3967;48.702;9.326;2022-11-20T14:24:05;1.67;;;0.83;;
7843;SDS011;3967;48.702;9.326;2022-11-20T14:26:32;2.13;;;1.07;;
7843;SDS011;3967;48.702;9.326;2022-11-20T14:29:02;0.90;;;0.80;;
7843;SDS011;3967;48.702;9.326;2022-11-20T14:31:30;1.33;;;0.97;;
7843;SDS011;3967;48.702;9.326;2022-11-20T14:33:58;1.83;;;1.30;;
7843;SDS011;3967;48.702;9.326;2022-11-20T14:36:24;1.13;;;1.03;;
7843;SDS011;3967;48.702;9.326;2022-11-20T14:38:52;2.27;;;1.00;;
7843;SDS011;3967;48.702;9.326;2022-11-20T14:41:23;3.23;;;0.80;;
7843;SDS011;3967;48.702;9.326;2022-11-20T14:43:54;2.30;;;0.97;;
7843;SDS011;3967;48.702;9.326;2022-11-20T14:46:23;3.83;;;0.90;;
7843;SDS011;3967;48.702;9.326;2022-11-20T14:48:55;2.23;;;0.90;;
7843;SDS011;3967;48.702;9.326;2022-11-20T14:51:25;1.07;;;0.80;;
7843;SDS011;3967;48.702;9.326;2022-11-20T14:54:14;1.10;;;0.70;;
7843;SDS011;3967;48.702;9.326;2022-11-20T14:56:42;2.10;;;1.40;;
7843;SDS011;3967;48.702;9.326;2022-11-20T14:59:26;2.10;;;1.10;;
7843;SDS011;3967;48.702;9.326;2022-11-20T15:02:02;1.67;;;0.90;;
7843;SDS011;3967;48.702;9.326;2022-11-20T15:07:26;1.37;;;1.00;;
7843;SDS011;3967;48.702;9.326;2022-11-20T15:10:08;0.83;;;0.83;;
7843;SDS011;3967;48.702;9.326;2022-11-20T15:12:38;2.80;;;1.80;;
7843;SDS011;3967;48.702;9.326;2022-11-20T15:15:16;1.60;;;1.50;;
7843;SDS011;3967;48.702;9.326;2022-11-20T15:17:46;2.10;;;1.30;;
7843;SDS011;3967;48.702;9.326;2022-11-20T15:20:14;2.70;;;1.00;;
7843;SDS011;3967;48.702;9.326;2022-11-20T15:22:43;2.97;;;2.60;;
7843;SDS011;3967;48.702;9.326;2022-11-20T15:25:16;1.23;;;1.10;;
7843;SDS011;3967;48.702;9.326;2022-11-20T15:27:44;1.80;;;1.00;;
7843;SDS011;3967;48.702;9.326;2022-11-20T15:30:17;2.23;;;0.87;;
7843;SDS011;3967;48.702;9.326;2022-11-20T15:32:46;1.37;;;0.80;;
7843;SDS011;3967;48.702;9.326;2022-11-20T15:35:13;3.87;;;2.10;;
7843;SDS011;3967;48.702;9.326;2022-11-20T15:37:41;2.37;;;1.60;;
7843;SDS011;3967;48.702;9.326;2022-11-20T15:40:09;2.53;;;1.70;;
7843;SDS011;3967;48.702;9.326;2022-11-20T15:42:36;1.73;;;1.40;;
7843;SDS011;3967;48.702;9.326;2022-11-20T15:45:02;3.33;;;1.80;;
7843;SDS011;3967;48.702;9.326;2022-11-20T15:47:30;3.70;;;2.07;;
7843;SDS011;3967;48.702;9.326;2022-11-20T15:49:59;3.10;;;1.67;;
7843;SDS011;3967;48.702;9.326;2022-11-20T15:52:26;4.17;;;1.70;;
7843;SDS011;3967;48.702;9.326;2022-11-20T15:55:01;2.10;;;1.70;;
7843;SDS011;3967;48.702;9.326;2022-11-20T15:57:34;2.70;;;1.70;;
7843;SDS011;3967;48.702;9.326;2022-11-20T16:00:01;5.33;;;2.17;;
7843;SDS011;3967;48.702;9.326;2022-11-20T16:02:29;2.33;;;1.70;;
7843;SDS011;3967;48.702;9.326;2022-11-20T16:04:55;2.90;;;1.97;;
7843;SDS011;3967;48.702;9.326;2022-11-20T16:07:22;3.27;;;2.17;;
7843;SDS011;3967;48.702;9.326;2022-11-20T16:09:49;1.87;;;1.60;;
7843;SDS011;3967;48.702;9.326;2022-11-20T16:12:16;2.60;;;2.03;;
7843;SDS011;3967;48.702;9.326;2022-11-20T16:15:02;2.43;;;1.93;;
7843;SDS011;3967;48.702;9.326;2022-11-20T16:17:48;3.03;;;2.10;;
7843;SDS011;3967;48.702;9.326;2022-11-20T16:20:15;2.47;;;2.27;;
7843;SDS011;3967;48.702;9.326;2022-11-20T16:22:43;3.63;;;3.17;;
7843;SDS011;3967;48.702;9.326;2022-11-20T16:25:09;5.23;;;4.63;;
7843;SDS011;3967;48.702;9.326;2022-11-20T16:27:36;6.10;;;5.50;;
7843;SDS011;3967;48.702;9.326;2022-11-20T16:30:03;5.77;;;4.80;;
7843;SDS011;3967;48.702;9.326;2022-11-20T16:32:30;6.00;;;5.40;;
7843;SDS011;3967;48.702;9.326;2022-11-20T16:34:57;6.07;;;5.47;;
7843;SDS011;3967;48.702;9.326;2022-11-20T16:37:24;5.30;;;4.73;;
7843;SDS011;3967;48.702;9.326;2022-11-20T16:39:50;5.60;;;4.57;;
7843;SDS011;3967;48.702;9.326;2022-11-20T16:42:17;5.83;;;4.80;;
7843;SDS011;3967;48.702;9.326;2022-11-20T16:44:45;26.60;;;15.07;;
7843;SDS011;3967;48.702;9.326;2022-11-20T16:47:12;38.90;;;18.87;;
7843;SDS011;3967;48.702;9.326;2022-11-20T16:49:39;60.30;;;28.83;;
7843;SDS011;3967;48.702;9.326;2022-11-20T16:52:06;72.70;;;35.03;;
7843;SDS011;3967;48.702;9.326;2022-11-20T16:54:32;46.57;;;25.33;;
7843;SDS011;3967;48.702;9.326;2022-11-20T16:56:59;27.63;;;14.67;;
7843;SDS011;3967;48.702;9.326;2022-11-20T16:59:26;16.70;;;10.30;;
7843;SDS011;3967;48.702;9.326;2022-11-20T17:01:53;19.17;;;11.03;;
7843;SDS011;3967;48.702;9.326;2022-11-20T17:04:20;14.20;;;9.20;;
7843;SDS011;3967;48.702;9.326;2022-11-20T17:06:47;8.70;;;7.17;;